createdAt,value
2023-01-29T00:01:01.091Z,20.5
2023-01-29T00:06:01.104Z,20.8
2023-01-29T00:11:01.076Z,20.1
2023-01-29T00:16:01.078Z,17.3
2023-01-29T00:21:01.113Z,17.7
2023-01-29T00:26:01.165Z,17.0
2023-01-29T00:31:01.137Z,15.1
2023-01-29T00:36:01.793Z,14.8
2023-01-29T00:41:06.457Z,16.7
2023-01-29T00:51:01.199Z,17.1
2023-01-29T00:56:02.534Z,19.8
2023-01-29T01:01:01.125Z,21.0
2023-01-29T01:06:01.174Z,21.6
2023-01-29T01:11:01.064Z,22.5
2023-01-29T01:16:01.132Z,24.0
2023-01-29T01:21:01.115Z,26.9
2023-01-29T01:26:01.064Z,28.4
2023-01-29T01:31:01.104Z,28.2
2023-01-29T01:36:01.124Z,29.2
2023-01-29T01:41:01.088Z,30.7
2023-01-29T01:46:01.081Z,30.6
2023-01-29T01:56:01.593Z,32.9
2023-01-29T02:01:01.094Z,34.4
2023-01-29T02:06:01.055Z,33.6
2023-01-29T02:11:01.110Z,32.6
2023-01-29T02:16:01.055Z,32.8
2023-01-29T02:21:01.103Z,31.8
2023-01-29T02:26:01.057Z,30.2
2023-01-29T02:31:01.070Z,30.3
2023-01-29T02:36:16.423Z,30.8
2023-01-29T02:41:01.055Z,30.0
2023-01-29T02:46:01.118Z,31.0
2023-01-29T02:51:01.065Z,31.1
2023-01-29T02:56:02.195Z,31.0
2023-01-29T03:01:01.078Z,30.6
2023-01-29T03:06:01.080Z,29.6
2023-01-29T03:11:01.065Z,27.2
2023-01-29T03:16:01.151Z,27.1
2023-01-29T03:21:05.586Z,26.1
2023-01-29T03:26:01.067Z,25.6
2023-01-29T03:31:01.166Z,27.1
2023-01-29T03:36:01.095Z,27.6
2023-01-29T03:41:01.059Z,25.6
2023-01-29T03:46:01.059Z,26.2
2023-01-29T03:51:01.097Z,25.4
2023-01-29T03:56:01.052Z,25.6
2023-01-29T04:01:01.085Z,26.4
2023-01-29T04:06:01.074Z,28.2
2023-01-29T04:11:01.064Z,28.0
2023-01-29T04:16:01.071Z,28.7
2023-01-29T04:21:01.074Z,25.7
2023-01-29T04:26:01.090Z,26.1
2023-01-29T04:31:01.199Z,25.2
2023-01-29T04:36:01.080Z,25.7
2023-01-29T04:41:01.061Z,26.8
2023-01-29T04:46:01.088Z,30.1
2023-01-29T04:51:01.093Z,30.8
2023-01-29T04:57:01.760Z,31.5
2023-01-29T05:02:01.183Z,32.9
2023-01-29T05:07:01.155Z,32.6
2023-01-29T05:12:01.060Z,32.5
2023-01-29T05:17:01.065Z,30.4
2023-01-29T05:22:01.063Z,30.8
2023-01-29T05:27:01.075Z,29.6
2023-01-29T05:32:01.083Z,28.2
2023-01-29T05:37:01.080Z,27.9
2023-01-29T05:42:01.064Z,29.2
2023-01-29T05:47:01.064Z,27.7
2023-01-29T05:52:01.142Z,27.9
2023-01-29T05:57:01.601Z,28.5
2023-01-29T06:02:01.136Z,28.4
2023-01-29T06:07:01.173Z,31.2
2023-01-29T06:12:01.063Z,33.1
2023-01-29T06:17:01.079Z,33.8
2023-01-29T06:27:01.065Z,33.0
2023-01-29T06:32:01.154Z,26.9
2023-01-29T06:37:01.738Z,26.2
2023-01-29T06:42:01.147Z,25.1
2023-01-29T06:47:01.471Z,26.0
2023-01-29T06:52:01.161Z,27.0
2023-01-29T06:57:01.069Z,31.1
2023-01-29T07:02:01.113Z,30.0
2023-01-29T07:07:01.155Z,31.6
2023-01-29T07:12:01.078Z,30.8
2023-01-29T07:17:01.062Z,29.5
2023-01-29T07:22:01.066Z,27.5
2023-01-29T07:27:01.055Z,29.1
2023-01-29T07:32:01.154Z,28.6
2023-01-29T07:37:01.072Z,29.5
2023-01-29T07:42:01.064Z,30.6
2023-01-29T07:47:01.063Z,32.9
2023-01-29T07:52:01.113Z,32.2
2023-01-29T07:57:01.063Z,32.1
2023-01-29T08:02:01.800Z,31.8
2023-01-29T08:07:01.604Z,32.9
2023-01-29T08:12:01.439Z,33.3
2023-01-29T08:17:01.493Z,34.8
2023-01-29T08:22:01.079Z,34.6
2023-01-29T08:27:01.093Z,35.4
2023-01-29T08:32:01.759Z,36.1
2023-01-29T08:37:01.087Z,35.9
2023-01-29T08:42:01.118Z,36.6
2023-01-29T08:47:01.055Z,38.1
2023-01-29T08:52:03.021Z,37.6
2023-01-29T08:57:01.141Z,35.7
2023-01-29T09:02:01.059Z,35.8
2023-01-29T09:07:01.058Z,35.3
2023-01-29T09:12:01.056Z,33.8
2023-01-29T09:17:01.462Z,34.4
2023-01-29T09:22:01.063Z,35.8
2023-01-29T09:27:01.450Z,37.1
2023-01-29T09:32:01.060Z,36.5
2023-01-29T09:37:01.581Z,37.4
2023-01-29T09:42:01.061Z,38.7
2023-01-29T09:47:01.052Z,38.4
2023-01-29T09:52:01.077Z,37.8
2023-01-29T09:57:01.062Z,39.4
2023-01-29T10:02:01.171Z,40.4
2023-01-29T10:07:01.070Z,39.8
2023-01-29T10:13:01.155Z,39.4
2023-01-29T10:18:01.172Z,38.0
2023-01-29T10:23:01.110Z,36.5
2023-01-29T10:28:07.080Z,35.9
2023-01-29T10:33:02.872Z,36.6
2023-01-29T10:38:01.117Z,37.0
2023-01-29T10:43:01.068Z,38.8
2023-01-29T10:48:08.522Z,39.4
2023-01-29T10:53:01.082Z,39.0
2023-01-29T10:58:02.908Z,38.4
2023-01-29T11:03:26.720Z,37.9
2023-01-29T11:08:01.063Z,37.8
2023-01-29T11:13:01.096Z,37.4
2023-01-29T11:18:07.109Z,36.2
2023-01-29T11:23:01.071Z,37.0
2023-01-29T11:28:01.059Z,36.7
2023-01-29T11:33:01.059Z,35.2
2023-01-29T11:43:01.057Z,34.1
2023-01-29T11:48:01.182Z,31.9
2023-01-29T11:53:02.502Z,32.0
2023-01-29T11:58:01.065Z,30.6
2023-01-29T12:03:01.069Z,31.7
2023-01-29T12:08:01.076Z,34.3
2023-01-29T12:13:01.061Z,34.8
2023-01-29T12:18:01.068Z,34.5
2023-01-29T12:23:01.065Z,38.4
2023-01-29T12:28:01.085Z,38.2
2023-01-29T12:33:01.073Z,37.7
2023-01-29T12:38:01.088Z,39.3
2023-01-29T12:43:01.060Z,41.0
2023-01-29T12:48:01.060Z,39.2
2023-01-29T12:53:01.067Z,38.4
2023-01-29T12:58:01.147Z,36.7
2023-01-29T13:03:01.114Z,35.8
2023-01-29T13:08:01.073Z,35.4
2023-01-29T13:13:01.058Z,36.4
2023-01-29T13:18:01.057Z,35.0
2023-01-29T13:23:01.075Z,36.7
2023-01-29T13:28:01.078Z,36.5
2023-01-29T13:33:01.127Z,37.1
2023-01-29T13:38:01.111Z,34.6
2023-01-29T13:43:01.060Z,37.3
2023-01-29T13:48:08.155Z,38.3
2023-01-29T13:53:01.080Z,37.6
2023-01-29T13:58:01.065Z,35.2
2023-01-29T14:03:01.174Z,37.3
2023-01-29T14:08:01.090Z,35.4
2023-01-29T14:13:01.070Z,34.2
2023-01-29T14:18:01.095Z,34.7
2023-01-29T14:23:01.478Z,34.5
2023-01-29T14:28:01.059Z,34.3
2023-01-29T14:33:01.057Z,35.4
2023-01-29T14:38:01.072Z,35.0
2023-01-29T14:43:01.091Z,33.0
2023-01-29T14:48:01.059Z,37.0
2023-01-29T14:53:01.155Z,36.2
2023-01-29T14:58:01.081Z,35.7
2023-01-29T15:03:02.143Z,36.0
2023-01-29T15:08:01.117Z,37.5
2023-01-29T15:13:01.073Z,34.6
2023-01-29T15:40:11.056Z,28.8
2023-01-29T15:45:01.874Z,33.3
2023-01-29T15:50:01.390Z,32.3
2023-01-29T15:55:01.125Z,33.8
2023-01-29T16:01:01.076Z,35.0
2023-01-29T16:06:01.066Z,36.8
2023-01-29T16:11:01.186Z,38.3
2023-01-29T16:16:01.217Z,39.6
2023-01-29T16:21:01.108Z,40.8
2023-01-29T16:26:01.113Z,39.6
2023-01-29T16:31:02.754Z,45.7
2023-01-29T16:36:01.071Z,47.5
2023-01-29T16:41:01.106Z,50.4
2023-01-29T16:46:01.058Z,50.8
2023-01-29T16:51:01.779Z,52.4
2023-01-29T16:56:01.150Z,45.3
2023-01-29T17:01:01.121Z,40.5
2023-01-29T17:06:01.134Z,36.8
2023-01-29T17:11:01.061Z,34.2
2023-01-29T17:16:01.151Z,28.8
2023-01-29T17:21:01.474Z,30.0
2023-01-29T17:26:01.063Z,30.4
2023-01-29T17:31:06.435Z,30.0
2023-01-29T17:36:01.075Z,32.0
2023-01-29T17:41:01.064Z,35.0
2023-01-29T17:46:01.104Z,33.0
2023-01-29T17:52:01.109Z,32.2
2023-01-29T17:57:01.060Z,30.6
2023-01-29T18:02:01.161Z,28.4
2023-01-29T18:07:01.077Z,29.7
2023-01-29T18:12:01.056Z,30.3
2023-01-29T18:17:01.059Z,31.6
2023-01-29T18:22:01.118Z,34.0
2023-01-29T18:27:01.069Z,33.8
2023-01-29T18:32:01.128Z,32.9
2023-01-29T18:37:01.131Z,33.2
2023-01-29T18:42:01.076Z,31.7
2023-01-29T18:47:01.073Z,31.2
2023-01-29T18:57:08.287Z,32.0
2023-01-29T19:02:01.138Z,32.9
2023-01-29T19:07:01.085Z,32.6
2023-01-29T19:12:01.111Z,32.0
2023-01-29T19:17:01.212Z,31.0
2023-01-29T19:22:01.107Z,29.5
2023-01-29T19:27:01.054Z,28.1
2023-01-29T19:32:01.059Z,28.6
2023-01-29T19:37:01.080Z,26.9
2023-01-29T19:42:01.067Z,28.1
2023-01-29T19:47:01.054Z,29.4
2023-01-29T19:52:01.144Z,28.6
2023-01-29T19:57:01.057Z,29.5
2023-01-29T20:02:01.093Z,30.6
2023-01-29T20:12:01.070Z,29.0
2023-01-29T20:17:01.068Z,29.4
2023-01-29T20:22:02.398Z,27.6
2023-01-29T20:32:01.069Z,27.5
2023-01-29T20:37:01.070Z,25.2
2023-01-29T20:42:01.077Z,25.7
2023-01-29T20:47:01.813Z,27.0
2023-01-29T20:52:01.081Z,26.8
2023-01-29T20:57:01.158Z,25.0
2023-01-29T21:02:01.097Z,29.1
2023-01-29T21:07:01.131Z,29.4
2023-01-29T21:12:01.079Z,28.7
2023-01-29T21:17:01.117Z,28.9
2023-01-29T21:22:01.065Z,30.2
2023-01-29T21:27:01.103Z,28.7
2023-01-29T21:32:01.111Z,29.5
2023-01-29T21:37:01.069Z,31.4
2023-01-29T21:42:01.074Z,32.7
2023-01-29T21:47:01.083Z,33.6
2023-01-29T21:52:01.111Z,34.2
2023-01-29T21:57:01.142Z,32.9
2023-01-29T22:02:01.163Z,31.1
2023-01-29T22:07:01.069Z,30.9
2023-01-29T22:12:01.062Z,30.4
2023-01-29T22:17:01.119Z,30.0
2023-01-29T22:22:01.073Z,30.5
2023-01-29T22:27:01.066Z,30.8
2023-01-29T22:32:01.110Z,30.0
2023-01-29T22:42:01.109Z,30.3
2023-01-29T22:47:01.074Z,30.7
2023-01-29T22:52:01.188Z,31.2
2023-01-29T22:57:01.063Z,32.7
2023-01-29T23:02:01.160Z,32.8
2023-01-29T23:07:01.227Z,33.8
2023-01-29T23:17:01.067Z,32.4
2023-01-29T23:22:01.120Z,30.1
2023-01-29T23:27:01.074Z,29.6
2023-01-29T23:33:01.065Z,28.6
2023-01-29T23:38:01.765Z,27.8
2023-01-29T23:43:01.077Z,28.0
2023-01-29T23:48:01.058Z,28.5
2023-01-29T23:53:01.072Z,28.3
2023-01-29T23:58:01.073Z,24.8
